createdAt,value
2022-10-11T00:00:13.220Z,13.20
2022-10-11T00:02:35.735Z,13.06
2022-10-11T00:04:58.265Z,12.92
2022-10-11T00:07:20.898Z,12.92
2022-10-11T00:09:43.770Z,12.82
2022-10-11T00:12:06.571Z,12.84
2022-10-11T00:14:59.864Z,12.93
2022-10-11T00:17:32.889Z,12.98
2022-10-11T00:20:05.577Z,12.84
2022-10-11T00:22:40.088Z,12.91
2022-10-11T00:25:13.863Z,12.82
2022-10-11T00:27:47.617Z,12.79
2022-10-11T00:30:22.281Z,12.69
2022-10-11T00:32:57.431Z,12.74
2022-10-11T00:35:32.163Z,12.58
2022-10-11T00:38:06.500Z,12.54
2022-10-11T00:40:41.096Z,12.42
2022-10-11T00:43:22.157Z,12.34
2022-10-11T00:45:56.530Z,12.26
2022-10-11T00:48:53.703Z,12.47
2022-10-11T00:51:36.137Z,12.31
2022-10-11T00:54:15.152Z,12.27
2022-10-11T00:56:53.749Z,12.41
2022-10-11T00:59:30.847Z,12.51
2022-10-11T01:02:06.795Z,12.54
2022-10-11T01:04:41.795Z,12.60
2022-10-11T01:07:18.837Z,12.58
2022-10-11T01:09:59.160Z,12.58
2022-10-11T01:12:33.863Z,12.55
2022-10-11T01:15:33.952Z,12.54
2022-10-11T01:18:19.597Z,12.48
2022-10-11T01:20:59.715Z,12.42
2022-10-11T01:24:19.745Z,12.55
2022-10-11T01:27:32.058Z,12.54
2022-10-11T01:30:28.165Z,12.58
2022-10-11T01:33:30.652Z,12.45
2022-10-11T01:36:14.185Z,12.42
2022-10-11T01:38:53.448Z,12.52
2022-10-11T01:41:42.231Z,12.58
2022-10-11T01:44:16.396Z,12.65
2022-10-11T01:46:54.494Z,12.72
2022-10-11T01:49:28.775Z,12.71
2022-10-11T01:52:07.103Z,12.68
2022-10-11T01:55:08.506Z,12.74
2022-10-11T01:58:02.287Z,12.58
2022-10-11T02:01:08.287Z,12.61
2022-10-11T02:04:07.491Z,12.62
2022-10-11T02:07:00.311Z,12.60
2022-10-11T02:09:42.780Z,12.58
2022-10-11T02:12:25.450Z,12.62
2022-10-11T02:15:03.865Z,12.52
2022-10-11T02:17:45.095Z,12.38
2022-10-11T02:20:23.176Z,12.29
2022-10-11T02:23:03.436Z,12.21
2022-10-11T02:25:38.030Z,12.24
2022-10-11T02:28:18.167Z,12.21
2022-10-11T02:30:53.681Z,12.26
2022-10-11T02:33:33.719Z,12.24
2022-10-11T02:36:15.902Z,12.27
2022-10-11T02:38:58.083Z,12.29
2022-10-11T02:41:39.799Z,12.21
2022-10-11T02:44:33.096Z,12.24
2022-10-11T02:47:07.597Z,12.16
2022-10-11T02:49:42.673Z,12.14
2022-10-11T02:52:18.355Z,12.20
2022-10-11T02:54:52.733Z,12.21
2022-10-11T02:57:26.109Z,12.21
2022-10-11T03:00:00.731Z,12.26
2022-10-11T03:02:35.826Z,12.30
2022-10-11T03:05:11.027Z,12.07
2022-10-11T03:07:46.092Z,12.13
2022-10-11T03:10:20.427Z,12.16
2022-10-11T03:12:54.095Z,12.07
2022-10-11T03:15:28.024Z,12.10
2022-10-11T03:18:02.592Z,12.13
2022-10-11T03:20:36.279Z,12.16
2022-10-11T03:23:11.492Z,12.24
2022-10-11T03:25:46.436Z,12.27
2022-10-11T03:28:20.601Z,12.12
2022-10-11T03:30:54.744Z,12.16
2022-10-11T03:33:29.517Z,12.17
2022-10-11T03:36:03.049Z,12.16
2022-10-11T03:38:37.467Z,12.10
2022-10-11T03:41:12.065Z,12.00
2022-10-11T03:43:46.610Z,11.87
2022-10-11T03:46:21.410Z,11.78
2022-10-11T03:48:56.750Z,11.74
2022-10-11T03:51:32.087Z,11.69
2022-10-11T03:54:07.092Z,11.64
2022-10-11T03:56:41.466Z,11.47
2022-10-11T03:59:14.548Z,11.47
2022-10-11T04:01:47.180Z,11.38
2022-10-11T04:04:21.101Z,11.44
2022-10-11T04:06:55.119Z,11.30
2022-10-11T04:09:29.494Z,11.39
2022-10-11T04:12:04.388Z,11.45
2022-10-11T04:14:38.595Z,11.50
2022-10-11T04:17:13.628Z,11.48
2022-10-11T04:19:48.527Z,11.42
2022-10-11T04:22:21.802Z,11.45
2022-10-11T04:24:56.432Z,11.51
2022-10-11T04:27:30.129Z,11.54
2022-10-11T04:30:04.577Z,11.59
2022-10-11T04:32:37.246Z,11.54
2022-10-11T04:35:10.579Z,11.65
2022-10-11T04:37:43.675Z,11.82
2022-10-11T04:40:16.529Z,11.87
2022-10-11T04:42:51.916Z,11.87
2022-10-11T04:45:25.371Z,11.97
2022-10-11T04:47:58.984Z,12.09
2022-10-11T04:50:33.416Z,12.10
2022-10-11T04:53:08.708Z,12.12
2022-10-11T04:55:40.643Z,12.24
2022-10-11T04:58:12.953Z,12.19
2022-10-11T05:00:48.300Z,12.37
2022-10-11T05:03:23.041Z,12.61
2022-10-11T05:05:58.517Z,12.52
2022-10-11T05:08:34.353Z,12.55
2022-10-11T05:11:14.012Z,12.62
2022-10-11T05:13:48.582Z,12.67
2022-10-11T05:16:23.510Z,12.79
2022-10-11T05:19:00.417Z,12.78
2022-10-11T05:21:38.492Z,12.84
2022-10-11T05:24:16.808Z,12.95
2022-10-11T05:26:52.163Z,13.03
2022-10-11T05:29:25.759Z,13.07
2022-10-11T05:32:01.372Z,13.09
2022-10-11T05:34:36.261Z,13.02
2022-10-11T05:37:22.090Z,13.13
2022-10-11T05:39:56.012Z,13.19
2022-10-11T05:42:30.510Z,13.24
2022-10-11T05:45:04.781Z,13.26
2022-10-11T05:47:39.973Z,13.30
2022-10-11T05:50:13.372Z,13.40
2022-10-11T05:52:48.139Z,13.40
2022-10-11T05:55:22.187Z,13.50
2022-10-11T05:57:56.921Z,13.60
2022-10-11T06:00:30.900Z,13.63
2022-10-11T06:03:06.459Z,13.77
2022-10-11T06:05:41.391Z,13.78
2022-10-11T06:08:16.438Z,13.88
2022-10-11T06:10:50.729Z,13.85
2022-10-11T06:13:25.820Z,13.91
2022-10-11T06:16:14.053Z,14.05
2022-10-11T06:18:47.298Z,14.13
2022-10-11T06:21:46.800Z,14.18
2022-10-11T06:24:40.012Z,14.40
2022-10-11T06:27:39.686Z,14.64
2022-10-11T06:30:32.523Z,14.60
2022-10-11T06:33:05.092Z,14.81
2022-10-11T06:36:00.325Z,14.92
2022-10-11T06:39:03.560Z,15.22
2022-10-11T06:41:54.419Z,15.31
2022-10-11T06:44:47.171Z,15.50
2022-10-11T06:47:34.563Z,15.76
2022-10-11T06:50:07.464Z,15.69
2022-10-11T06:53:11.294Z,15.76
2022-10-11T06:56:11.589Z,15.84
2022-10-11T06:59:02.122Z,16.15
2022-10-11T07:02:04.721Z,16.55
2022-10-11T07:04:41.616Z,16.52
2022-10-11T07:07:19.096Z,16.63
2022-10-11T07:10:13.790Z,16.75
2022-10-11T07:13:03.487Z,16.75
2022-10-11T07:15:54.038Z,16.65
2022-10-11T07:18:28.050Z,16.75
2022-10-11T07:21:20.348Z,16.81
2022-10-11T07:24:11.805Z,16.75
2022-10-11T07:27:03.363Z,16.73
2022-10-11T07:29:50.077Z,16.72
2022-10-11T07:32:41.595Z,16.67
2022-10-11T07:35:36.447Z,17.28
2022-10-11T07:38:27.858Z,17.11
2022-10-11T07:41:16.623Z,16.83
2022-10-11T07:44:03.434Z,16.15
2022-10-11T07:46:57.553Z,16.10
2022-10-11T07:49:48.757Z,16.44
2022-10-11T07:52:40.729Z,16.62
2022-10-11T07:55:40.154Z,16.80
2022-10-11T07:58:28.411Z,17.00
2022-10-11T08:01:01.047Z,16.86
2022-10-11T08:03:54.767Z,16.79
2022-10-11T08:06:42.711Z,16.60
2022-10-11T08:09:39.202Z,16.96
2022-10-11T08:12:39.142Z,17.14
2022-10-11T08:15:38.907Z,16.99
2022-10-11T08:18:31.129Z,17.03
2022-10-11T08:21:21.445Z,17.20
2022-10-11T08:24:15.010Z,17.46
2022-10-11T08:27:05.998Z,17.63
2022-10-11T08:29:54.220Z,17.85
2022-10-11T08:32:27.306Z,17.80
2022-10-11T08:35:30.423Z,17.44
2022-10-11T08:38:23.909Z,17.30
2022-10-11T08:41:42.050Z,17.49
2022-10-11T08:45:08.874Z,17.41
2022-10-11T08:48:20.154Z,17.62
2022-10-11T08:51:49.955Z,17.93
2022-10-11T08:54:48.005Z,17.87
2022-10-11T08:57:41.700Z,18.20
2022-10-11T09:00:34.352Z,18.24
2022-10-11T09:03:23.619Z,17.90
2022-10-11T09:06:12.357Z,17.69
2022-10-11T09:09:11.614Z,17.44
2022-10-11T09:12:05.579Z,17.58
2022-10-11T09:14:46.623Z,17.52
2022-10-11T09:17:45.588Z,17.53
2022-10-11T09:20:53.174Z,17.69
2022-10-11T09:23:36.513Z,17.80
2022-10-11T09:26:48.969Z,17.82
2022-10-11T09:29:40.164Z,17.86
2022-10-11T09:32:03.202Z,17.85
2022-10-11T09:34:32.384Z,17.91
2022-10-11T09:37:07.440Z,17.91
2022-10-11T09:39:34.094Z,18.03
2022-10-11T09:42:01.944Z,18.23
2022-10-11T09:44:28.131Z,18.43
2022-10-11T09:46:54.008Z,18.52
2022-10-11T09:49:19.621Z,18.38
2022-10-11T09:51:49.894Z,18.61
2022-10-11T09:54:12.661Z,18.58
2022-10-11T09:56:42.287Z,18.86
2022-10-11T09:59:31.170Z,18.86
2022-10-11T10:02:14.576Z,18.58
2022-10-11T10:04:54.149Z,18.59
2022-10-11T10:07:16.938Z,18.65
2022-10-11T10:09:41.217Z,18.64
2022-10-11T10:12:19.068Z,18.81
2022-10-11T10:14:42.047Z,19.22
2022-10-11T10:17:08.662Z,19.16
2022-10-11T10:19:49.701Z,19.28
2022-10-11T10:22:25.471Z,19.22
2022-10-11T10:24:49.906Z,19.06
2022-10-11T10:27:27.298Z,19.24
2022-10-11T10:30:19.458Z,19.50
2022-10-11T10:33:11.964Z,19.55
2022-10-11T10:35:45.705Z,19.86
2022-10-11T10:38:11.140Z,20.13
2022-10-11T10:40:41.282Z,20.20
2022-10-11T10:43:04.046Z,20.25
2022-10-11T10:45:37.152Z,20.12
2022-10-11T10:48:18.188Z,20.36
2022-10-11T10:51:01.074Z,20.67
2022-10-11T10:53:43.354Z,20.77
2022-10-11T10:56:12.296Z,20.33
2022-10-11T10:59:01.039Z,20.61
2022-10-11T11:01:27.821Z,20.37
2022-10-11T11:04:06.779Z,20.23
2022-10-11T11:06:47.472Z,20.32
2022-10-11T11:09:19.246Z,20.22
2022-10-11T11:12:20.164Z,20.05
2022-10-11T11:14:48.451Z,19.93
2022-10-11T11:17:25.849Z,19.95
2022-10-11T11:20:16.586Z,20.12
2022-10-11T11:22:50.962Z,19.95
2022-10-11T11:26:07.975Z,19.95
2022-10-11T11:28:49.254Z,20.06
2022-10-11T11:31:51.625Z,20.10
2022-10-11T11:34:17.335Z,20.09
2022-10-11T11:36:47.924Z,20.32
2022-10-11T11:39:39.760Z,20.17
2022-10-11T11:42:11.880Z,20.13
2022-10-11T11:44:44.050Z,20.33
2022-10-11T11:47:13.754Z,20.02
2022-10-11T11:49:40.343Z,20.12
2022-10-11T11:52:08.623Z,19.99
2022-10-11T11:54:52.868Z,20.04
2022-10-11T11:57:24.608Z,19.95
2022-10-11T12:00:10.290Z,19.86
2022-10-11T12:02:51.028Z,20.02
2022-10-11T12:05:16.946Z,20.04
2022-10-11T12:08:08.644Z,20.16
2022-10-11T12:10:49.737Z,20.06
2022-10-11T12:13:20.330Z,20.16
2022-10-11T12:16:09.761Z,20.22
2022-10-11T12:18:38.213Z,20.16
2022-10-11T12:21:25.110Z,20.16
2022-10-11T12:23:53.649Z,20.23
2022-10-11T12:26:29.140Z,20.32
2022-10-11T12:29:17.210Z,20.37
2022-10-11T12:31:45.204Z,20.41
2022-10-11T12:34:23.771Z,20.23
2022-10-11T12:36:50.899Z,20.37
2022-10-11T12:39:19.673Z,20.43
2022-10-11T12:41:56.903Z,20.09
2022-10-11T12:44:20.334Z,20.10
2022-10-11T12:47:03.925Z,20.16
2022-10-11T12:49:53.636Z,20.19
2022-10-11T12:52:16.264Z,20.22
2022-10-11T12:54:54.330Z,20.23
2022-10-11T12:57:45.938Z,20.12
2022-10-11T13:00:32.041Z,20.12
2022-10-11T13:02:56.582Z,20.33
2022-10-11T13:05:45.317Z,20.22
2022-10-11T13:08:16.164Z,20.02
2022-10-11T13:10:43.955Z,20.06
2022-10-11T13:13:15.879Z,19.96
2022-10-11T13:15:42.032Z,20.06
2022-10-11T13:18:05.252Z,20.09
2022-10-11T13:20:37.521Z,20.32
2022-10-11T13:23:02.856Z,20.20
2022-10-11T13:25:28.157Z,20.17
2022-10-11T13:30:32.239Z,20.09
2022-10-11T13:32:55.387Z,19.92
2022-10-11T13:35:30.362Z,19.93
2022-10-11T13:37:53.199Z,19.92
2022-10-11T13:40:18.978Z,19.92
2022-10-11T13:42:41.968Z,19.86
2022-10-11T13:45:05.447Z,19.81
2022-10-11T13:47:30.757Z,19.71
2022-10-11T13:50:33.413Z,19.79
2022-10-11T13:53:01.935Z,19.81
2022-10-11T13:55:53.218Z,19.95
2022-10-11T13:58:27.847Z,19.86
2022-10-11T14:00:56.800Z,19.82
2022-10-11T14:03:21.386Z,19.82
2022-10-11T14:05:53.276Z,19.93
2022-10-11T14:08:28.644Z,19.93
2022-10-11T14:10:56.703Z,19.92
2022-10-11T14:13:40.183Z,20.06
2022-10-11T14:16:05.217Z,20.22
2022-10-11T14:18:42.609Z,20.56
2022-10-11T14:21:20.291Z,20.54
2022-10-11T14:23:42.876Z,20.30
2022-10-11T14:26:05.956Z,20.30
2022-10-11T14:28:28.890Z,20.34
2022-10-11T14:30:51.480Z,20.20
2022-10-11T14:33:14.194Z,20.32
2022-10-11T14:35:36.850Z,20.13
2022-10-11T14:38:00.057Z,19.96
2022-10-11T14:40:25.181Z,19.83
2022-10-11T14:42:48.167Z,19.93
2022-10-11T14:45:11.142Z,19.74
2022-10-11T14:47:40.565Z,20.02
2022-10-11T14:50:28.670Z,19.81
2022-10-11T14:52:51.564Z,19.93
2022-10-11T14:55:14.105Z,19.83
2022-10-11T14:57:36.705Z,19.75
2022-10-11T14:59:59.235Z,19.86
2022-10-11T15:02:21.776Z,19.90
2022-10-11T15:04:44.230Z,19.77
2022-10-11T15:07:07.018Z,19.75
2022-10-11T15:09:30.211Z,19.53
2022-10-11T15:11:54.744Z,19.38
2022-10-11T15:14:17.655Z,19.60
2022-10-11T15:16:40.681Z,19.67
2022-10-11T15:19:03.586Z,19.60
2022-10-11T15:21:28.597Z,19.71
2022-10-11T15:23:53.964Z,19.79
2022-10-11T15:26:18.780Z,19.75
2022-10-11T15:28:42.419Z,19.70
2022-10-11T15:31:05.130Z,19.74
2022-10-11T15:33:27.741Z,19.67
2022-10-11T15:35:51.027Z,19.64
2022-10-11T15:38:22.926Z,19.58
2022-10-11T15:40:46.716Z,19.57
2022-10-11T15:43:09.337Z,19.47
2022-10-11T15:45:34.760Z,19.46
2022-10-11T15:47:58.144Z,19.43
2022-10-11T15:50:36.837Z,19.37
2022-10-11T15:53:18.057Z,19.24
2022-10-11T15:55:52.943Z,19.23
2022-10-11T15:58:24.849Z,19.23
2022-10-11T16:00:51.184Z,19.22
2022-10-11T16:03:15.641Z,19.22
2022-10-11T16:05:38.375Z,19.19
2022-10-11T16:08:01.122Z,19.22
2022-10-11T16:10:23.839Z,19.17
2022-10-11T16:12:46.926Z,19.14
2022-10-11T16:15:10.228Z,19.14
2022-10-11T16:17:32.867Z,19.06
2022-10-11T16:19:57.471Z,19.03
2022-10-11T16:22:20.035Z,18.93
2022-10-11T16:24:42.876Z,18.95
2022-10-11T16:27:05.902Z,18.96
2022-10-11T16:29:29.149Z,18.85
2022-10-11T16:31:51.965Z,18.92
2022-10-11T16:34:14.600Z,18.92
2022-10-11T16:36:40.777Z,18.89
2022-10-11T16:39:14.815Z,18.85
2022-10-11T16:41:37.596Z,18.79
2022-10-11T16:44:00.119Z,18.82
2022-10-11T16:46:23.085Z,18.86
2022-10-11T16:48:46.749Z,18.77
2022-10-11T16:51:10.052Z,18.75
2022-10-11T16:53:35.878Z,18.68
2022-10-11T16:55:58.991Z,18.76
2022-10-11T16:58:21.642Z,18.71
2022-10-11T17:00:48.461Z,18.65
2022-10-11T17:03:12.369Z,18.66
2022-10-11T17:05:36.671Z,18.69
2022-10-11T17:07:59.161Z,18.68
2022-10-11T17:10:39.365Z,18.71
2022-10-11T17:13:02.434Z,18.68
2022-10-11T17:15:26.331Z,18.72
2022-10-11T17:17:49.027Z,18.58
2022-10-11T17:20:11.658Z,18.55
2022-10-11T17:22:34.236Z,18.43
2022-10-11T17:24:56.743Z,18.21
2022-10-11T17:27:19.420Z,18.16
2022-10-11T17:29:42.062Z,18.21
2022-10-11T17:32:05.162Z,18.11
2022-10-11T17:34:27.876Z,18.14
2022-10-11T17:36:50.603Z,18.21
2022-10-11T17:39:15.826Z,18.16
2022-10-11T17:41:38.961Z,18.03
2022-10-11T17:44:02.950Z,17.86
2022-10-11T17:46:25.918Z,17.82
2022-10-11T17:48:48.792Z,17.82
2022-10-11T17:51:14.934Z,17.83
2022-10-11T17:53:38.461Z,17.76
2022-10-11T17:56:05.455Z,17.76
2022-10-11T17:58:28.362Z,17.61
2022-10-11T18:00:51.087Z,17.51
2022-10-11T18:03:13.760Z,17.42
2022-10-11T18:05:40.972Z,17.27
2022-10-11T18:08:03.873Z,17.02
2022-10-11T18:10:28.677Z,16.93
2022-10-11T18:12:53.322Z,16.81
2022-10-11T18:15:16.246Z,16.76
2022-10-11T18:17:38.970Z,16.70
2022-10-11T18:20:01.749Z,16.53
2022-10-11T18:22:24.302Z,16.39
2022-10-11T18:24:47.860Z,16.35
2022-10-11T18:27:10.307Z,16.32
2022-10-11T18:29:33.406Z,16.22
2022-10-11T18:31:56.508Z,16.10
2022-10-11T18:34:20.369Z,16.04
2022-10-11T18:36:43.122Z,16.04
2022-10-11T18:39:08.563Z,15.98
2022-10-11T18:41:32.626Z,15.79
2022-10-11T18:43:57.353Z,15.77
2022-10-11T18:46:21.593Z,15.62
2022-10-11T18:48:46.116Z,15.64
2022-10-11T18:51:14.944Z,15.54
2022-10-11T18:53:38.017Z,15.47
2022-10-11T18:56:01.825Z,15.47
2022-10-11T18:58:24.503Z,15.35
2022-10-11T19:00:47.303Z,15.21
2022-10-11T19:03:10.098Z,15.19
2022-10-11T19:05:32.913Z,15.11
2022-10-11T19:07:55.854Z,15.05
2022-10-11T19:10:18.548Z,15.09
2022-10-11T19:12:41.064Z,15.02
2022-10-11T19:15:03.882Z,14.89
2022-10-11T19:17:26.820Z,14.89
2022-10-11T19:19:49.993Z,14.84
2022-10-11T19:22:12.497Z,14.89
2022-10-11T19:24:35.077Z,14.84
2022-10-11T19:27:02.342Z,14.83
2022-10-11T19:29:27.827Z,14.77
2022-10-11T19:31:53.623Z,14.59
2022-10-11T19:34:16.658Z,14.60
2022-10-11T19:36:42.680Z,14.60
2022-10-11T19:39:05.951Z,14.60
2022-10-11T19:41:28.998Z,14.76
2022-10-11T19:43:51.825Z,14.83
2022-10-11T19:46:27.380Z,14.91
2022-10-11T19:48:55.436Z,15.01
2022-10-11T19:51:21.994Z,14.94
2022-10-11T19:53:45.898Z,14.94
2022-10-11T19:56:11.365Z,14.99
2022-10-11T19:58:34.102Z,14.94
2022-10-11T20:01:06.296Z,14.97
2022-10-11T20:03:30.440Z,14.97
2022-10-11T20:05:53.079Z,14.94
2022-10-11T20:08:15.547Z,14.97
2022-10-11T20:10:38.099Z,14.85
2022-10-11T20:13:00.784Z,14.89
2022-10-11T20:15:23.536Z,14.91
2022-10-11T20:17:50.054Z,14.88
2022-10-11T20:20:12.546Z,14.91
2022-10-11T20:22:35.545Z,14.94
2022-10-11T20:24:58.153Z,14.97
2022-10-11T20:27:20.708Z,14.94
2022-10-11T20:29:43.314Z,15.08
2022-10-11T20:32:06.035Z,15.11
2022-10-11T20:34:28.810Z,15.15
2022-10-11T20:36:52.305Z,15.21
2022-10-11T20:39:14.987Z,15.15
2022-10-11T20:41:40.034Z,15.24
2022-10-11T20:44:04.028Z,15.22
2022-10-11T20:46:29.894Z,15.19
2022-10-11T20:49:00.365Z,15.24
2022-10-11T20:51:24.114Z,15.28
2022-10-11T20:53:46.732Z,15.21
2022-10-11T20:56:12.240Z,15.19
2022-10-11T20:58:34.828Z,15.08
2022-10-11T21:00:57.503Z,15.09
2022-10-11T21:03:20.138Z,14.99
2022-10-11T21:05:43.303Z,14.95
2022-10-11T21:08:06.420Z,14.92
2022-10-11T21:10:29.124Z,14.85
2022-10-11T21:12:51.624Z,14.78
2022-10-11T21:15:14.552Z,14.73
2022-10-11T21:17:37.173Z,14.63
2022-10-11T21:20:01.965Z,14.57
2022-10-11T21:22:25.885Z,14.40
2022-10-11T21:24:48.352Z,14.33
2022-10-11T21:27:11.121Z,14.30
2022-10-11T21:29:33.754Z,14.22
2022-10-11T21:31:56.333Z,14.20
2022-10-11T21:34:19.026Z,14.09
2022-10-11T21:36:42.631Z,14.00
2022-10-11T21:39:05.659Z,14.00
2022-10-11T21:41:31.353Z,14.02
2022-10-11T21:43:53.952Z,13.85
2022-10-11T21:46:22.935Z,13.81
2022-10-11T21:48:46.157Z,13.81
2022-10-11T21:51:17.579Z,13.88
2022-10-11T21:53:40.131Z,13.85
2022-10-11T21:56:02.621Z,13.88
2022-10-11T21:58:25.465Z,13.89
2022-10-11T22:00:48.310Z,13.86
2022-10-11T22:03:11.300Z,13.77
2022-10-11T22:05:34.013Z,13.77
2022-10-11T22:08:02.316Z,13.73
2022-10-11T22:10:24.897Z,13.71
2022-10-11T22:12:47.430Z,13.60
2022-10-11T22:15:10.200Z,13.50
2022-10-11T22:17:33.106Z,13.40
2022-10-11T22:19:55.853Z,13.42
2022-10-11T22:22:18.687Z,13.36
2022-10-11T22:24:41.142Z,13.28
2022-10-11T22:27:03.871Z,13.26
2022-10-11T22:29:31.772Z,13.23
2022-10-11T22:31:56.541Z,13.09
2022-10-11T22:34:19.244Z,12.99
2022-10-11T22:36:41.909Z,13.00
2022-10-11T22:39:07.934Z,12.96
2022-10-11T22:41:30.783Z,12.87
2022-10-11T22:43:53.341Z,12.82
2022-10-11T22:46:16.021Z,12.89
2022-10-11T22:48:40.393Z,12.81
2022-10-11T22:51:03.388Z,12.88
2022-10-11T22:53:25.973Z,12.85
2022-10-11T22:55:48.599Z,12.82
2022-10-11T22:58:11.223Z,12.74
2022-10-11T23:00:34.205Z,12.71
2022-10-11T23:02:57.020Z,12.68
2022-10-11T23:05:19.934Z,12.69
2022-10-11T23:07:42.463Z,12.75
2022-10-11T23:10:05.552Z,12.84
2022-10-11T23:12:28.150Z,12.77
2022-10-11T23:14:50.711Z,12.71
2022-10-11T23:17:13.180Z,12.64
2022-10-11T23:19:37.870Z,12.61
2022-10-11T23:22:00.353Z,12.57
2022-10-11T23:24:23.186Z,12.57
2022-10-11T23:26:45.772Z,12.57
2022-10-11T23:29:08.420Z,12.55
2022-10-11T23:31:31.169Z,12.58
2022-10-11T23:33:54.570Z,12.62
2022-10-11T23:36:19.344Z,12.55
2022-10-11T23:38:41.933Z,12.60
2022-10-11T23:41:04.655Z,12.62
2022-10-11T23:43:27.334Z,12.67
2022-10-11T23:45:50.144Z,12.61
2022-10-11T23:48:12.795Z,12.64
2022-10-11T23:50:35.375Z,12.67
2022-10-11T23:52:57.974Z,12.62
2022-10-11T23:55:20.527Z,12.64
2022-10-11T23:57:43.128Z,12.65
